createdAt,value
2018-01-15T00:01:51.666Z,60.08
2018-01-15T00:04:19.382Z,60.64
2018-01-15T00:06:46.889Z,59.24
2018-01-15T00:09:14.753Z,60.13
2018-01-15T00:11:42.318Z,61.21
2018-01-15T00:14:09.825Z,61.00
2018-01-15T00:16:37.333Z,61.36
2018-01-15T00:19:04.894Z,62.50
2018-01-15T00:21:32.406Z,63.16
2018-01-15T00:23:59.920Z,61.87
2018-01-15T00:26:27.516Z,62.51
2018-01-15T00:28:55.026Z,61.64
2018-01-15T00:31:22.546Z,62.56
2018-01-15T00:33:50.209Z,62.90
2018-01-15T00:36:17.726Z,63.03
2018-01-15T00:38:45.241Z,62.71
2018-01-15T00:41:12.802Z,61.83
2018-01-15T00:43:40.326Z,62.92
2018-01-15T00:46:07.833Z,62.62
2018-01-15T00:48:35.613Z,63.58
2018-01-15T00:51:03.126Z,64.28
2018-01-15T00:53:30.649Z,64.43
2018-01-15T00:55:58.529Z,65.00
2018-01-15T00:58:26.034Z,64.46
2018-01-15T01:00:53.913Z,63.96
2018-01-15T01:03:21.533Z,64.39
2018-01-15T01:05:49.045Z,63.85
2018-01-15T01:08:16.549Z,63.81
2018-01-15T01:10:44.279Z,64.25
2018-01-15T01:13:11.793Z,63.95
2018-01-15T01:15:39.306Z,63.92
2018-01-15T01:18:06.865Z,64.69
2018-01-15T01:20:34.373Z,63.55
2018-01-15T01:23:01.885Z,63.91
2018-01-15T01:25:29.426Z,63.07
2018-01-15T01:27:56.929Z,63.26
2018-01-15T01:30:24.445Z,63.21
2018-01-15T01:32:52.213Z,63.14
2018-01-15T01:35:19.726Z,62.79
2018-01-15T01:37:47.241Z,63.17
2018-01-15T01:40:15.094Z,62.25
2018-01-15T01:42:42.610Z,62.46
2018-01-15T01:45:10.122Z,62.24
2018-01-15T01:47:38.029Z,63.87
2018-01-15T01:50:05.552Z,64.67
2018-01-15T01:52:33.113Z,64.22
2018-01-15T01:55:00.665Z,64.12
2018-01-15T01:57:28.182Z,64.21
2018-01-15T01:59:55.697Z,63.97
2018-01-15T02:02:23.336Z,64.30
2018-01-15T02:04:50.842Z,64.64
2018-01-15T02:07:18.351Z,63.16
2018-01-15T02:09:46.121Z,64.35
2018-01-15T02:12:13.636Z,62.70
2018-01-15T02:14:41.145Z,62.40
2018-01-15T02:17:08.781Z,63.16
2018-01-15T02:19:36.376Z,61.13
2018-01-15T02:22:03.893Z,62.65
2018-01-15T02:24:31.601Z,61.75
2018-01-15T02:26:59.174Z,63.22
2018-01-15T02:29:26.681Z,62.74
2018-01-15T02:31:54.373Z,64.10
2018-01-15T02:34:21.885Z,63.03
2018-01-15T02:36:49.402Z,63.70
2018-01-15T02:39:16.954Z,64.25
2018-01-15T02:41:44.470Z,63.13
2018-01-15T02:44:11.985Z,63.30
2018-01-15T02:46:39.618Z,64.02
2018-01-15T02:49:07.125Z,64.75
2018-01-15T02:51:34.641Z,63.88
2018-01-15T02:54:02.373Z,65.21
2018-01-15T02:56:29.902Z,63.83
2018-01-15T02:58:57.421Z,63.50
2018-01-15T03:01:25.054Z,63.47
2018-01-15T03:03:52.561Z,63.28
2018-01-15T03:06:20.073Z,63.05
2018-01-15T03:08:47.649Z,63.49
2018-01-15T03:11:15.157Z,63.27
2018-01-15T03:13:42.669Z,63.70
2018-01-15T03:16:10.212Z,63.59
2018-01-15T03:18:37.738Z,62.82
2018-01-15T03:21:05.245Z,62.79
2018-01-15T03:23:32.796Z,62.53
2018-01-15T03:26:00.301Z,63.21
2018-01-15T03:28:27.813Z,63.20
2018-01-15T03:30:55.390Z,63.17
2018-01-15T03:33:22.901Z,61.11
2018-01-15T03:35:50.410Z,60.64
2018-01-15T03:38:18.041Z,59.99
2018-01-15T03:40:45.558Z,60.84
2018-01-15T03:43:13.087Z,63.03
2018-01-15T03:45:40.942Z,61.84
2018-01-15T03:48:08.448Z,63.52
2018-01-15T03:50:35.958Z,63.74
2018-01-15T03:53:03.674Z,63.09
2018-01-15T03:55:31.188Z,62.80
2018-01-15T03:57:58.693Z,62.83
2018-01-15T04:00:26.258Z,62.36
2018-01-15T04:02:53.768Z,62.60
2018-01-15T04:05:21.278Z,60.38
2018-01-15T04:07:48.970Z,60.12
2018-01-15T04:10:16.484Z,61.50
2018-01-15T04:12:43.983Z,60.63
2018-01-15T04:15:11.688Z,59.58
2018-01-15T04:17:39.196Z,58.86
2018-01-15T04:20:06.696Z,60.99
2018-01-15T04:22:34.239Z,62.30
2018-01-15T04:25:02.108Z,61.30
2018-01-15T04:27:29.613Z,61.11
2018-01-15T04:29:57.224Z,61.77
2018-01-15T04:32:24.736Z,61.58
2018-01-15T04:34:52.257Z,60.81
2018-01-15T04:37:19.980Z,60.93
2018-01-15T04:39:47.480Z,61.91
2018-01-15T04:42:14.980Z,62.44
2018-01-15T04:44:42.524Z,62.16
2018-01-15T04:47:10.028Z,62.22
2018-01-15T04:49:37.530Z,61.33
2018-01-15T04:52:05.352Z,61.90
2018-01-15T04:54:32.865Z,61.61
2018-01-15T04:57:00.373Z,61.41
2018-01-15T04:59:27.909Z,60.95
2018-01-15T05:01:55.412Z,61.30
2018-01-15T05:04:22.916Z,62.11
2018-01-15T05:06:50.593Z,62.66
2018-01-15T05:09:18.101Z,63.06
2018-01-15T05:11:45.604Z,62.26
2018-01-15T05:14:13.160Z,62.19
2018-01-15T05:16:40.675Z,62.58
2018-01-15T05:19:08.172Z,62.42
2018-01-15T05:21:35.884Z,61.50
2018-01-15T05:24:03.388Z,61.02
2018-01-15T05:26:30.892Z,61.08
2018-01-15T05:28:58.439Z,62.61
2018-01-15T05:31:25.940Z,61.96
2018-01-15T05:33:53.444Z,61.44
2018-01-15T05:36:21.283Z,61.99
2018-01-15T05:38:48.792Z,61.57
2018-01-15T05:41:16.304Z,62.76
2018-01-15T05:43:44.139Z,62.78
2018-01-15T05:46:11.636Z,63.35
2018-01-15T05:48:39.139Z,63.21
2018-01-15T05:51:06.713Z,63.13
2018-01-15T05:53:34.212Z,62.46
2018-01-15T05:56:01.716Z,62.00
2018-01-15T05:58:29.248Z,62.04
2018-01-15T06:00:56.748Z,63.22
2018-01-15T06:03:24.249Z,63.03
2018-01-15T06:05:51.804Z,62.95
2018-01-15T06:08:19.309Z,63.11
2018-01-15T06:10:46.838Z,63.33
2018-01-15T06:13:14.672Z,63.84
2018-01-15T06:15:42.180Z,62.95
2018-01-15T06:18:09.828Z,63.26
2018-01-15T06:20:37.619Z,63.74
2018-01-15T06:23:05.262Z,64.38
2018-01-15T06:25:32.897Z,63.45
2018-01-15T06:28:00.696Z,64.27
2018-01-15T06:30:28.349Z,63.82
2018-01-15T06:32:57.640Z,63.76
2018-01-15T06:35:25.330Z,63.78
2018-01-15T06:37:52.952Z,62.68
2018-01-15T06:40:20.585Z,62.26
2018-01-15T06:42:48.360Z,62.42
2018-01-15T06:45:16.006Z,61.53
2018-01-15T06:47:43.623Z,61.60
2018-01-15T06:50:11.356Z,61.91
2018-01-15T06:52:39.040Z,61.38
2018-01-15T06:55:06.660Z,62.50
2018-01-15T06:57:34.416Z,61.65
2018-01-15T07:00:02.069Z,61.62
2018-01-15T07:02:29.699Z,60.17
2018-01-15T07:04:57.674Z,62.04
2018-01-15T07:07:25.329Z,62.06
2018-01-15T07:09:52.941Z,62.64
2018-01-15T07:12:20.617Z,62.44
2018-01-15T07:14:48.258Z,62.36
2018-01-15T07:17:15.905Z,62.24
2018-01-15T07:19:43.745Z,62.71
2018-01-15T07:22:11.373Z,61.32
2018-01-15T07:24:38.992Z,62.01
2018-01-15T07:27:06.820Z,61.45
2018-01-15T07:29:34.454Z,61.72
2018-01-15T07:32:02.416Z,61.00
2018-01-15T07:34:30.683Z,61.14
2018-01-15T07:36:58.325Z,60.28
2018-01-15T07:39:25.972Z,60.81
2018-01-15T07:41:53.813Z,60.67
2018-01-15T07:44:21.457Z,60.08
2018-01-15T07:46:49.429Z,60.26
2018-01-15T07:49:17.359Z,60.15
2018-01-15T07:51:44.989Z,59.27
2018-01-15T07:54:12.634Z,60.23
2018-01-15T07:56:40.307Z,60.46
2018-01-15T07:59:07.940Z,60.78
2018-01-15T08:01:35.581Z,60.11
2018-01-15T08:04:03.540Z,59.80
2018-01-15T08:06:31.175Z,59.51
2018-01-15T08:08:58.820Z,58.75
2018-01-15T08:11:26.706Z,58.15
2018-01-15T08:13:54.323Z,59.10
2018-01-15T08:16:21.968Z,59.41
2018-01-15T08:18:49.668Z,58.61
2018-01-15T08:21:17.312Z,59.00
2018-01-15T08:23:44.957Z,60.00
2018-01-15T08:26:12.666Z,58.83
2018-01-15T08:28:40.324Z,58.67
2018-01-15T08:31:07.967Z,57.45
2018-01-15T08:33:35.880Z,56.87
2018-01-15T08:36:03.526Z,56.13
2018-01-15T08:38:31.171Z,55.65
2018-01-15T08:40:58.961Z,54.84
2018-01-15T08:43:26.616Z,55.87
2018-01-15T08:45:54.234Z,54.81
2018-01-15T08:48:22.139Z,55.48
2018-01-15T08:50:49.755Z,54.28
2018-01-15T08:53:17.496Z,55.00
2018-01-15T08:55:45.484Z,54.00
2018-01-15T08:58:13.130Z,53.60
2018-01-15T09:00:40.792Z,52.73
2018-01-15T09:03:08.557Z,52.46
2018-01-15T09:05:36.205Z,51.22
2018-01-15T09:08:03.863Z,50.99
2018-01-15T09:10:31.643Z,51.91
2018-01-15T09:12:59.292Z,50.69
2018-01-15T09:15:26.939Z,51.68
2018-01-15T09:17:54.653Z,51.64
2018-01-15T09:20:22.286Z,51.93
2018-01-15T09:22:49.938Z,52.26
2018-01-15T09:25:17.802Z,52.63
2018-01-15T09:27:45.456Z,51.81
2018-01-15T09:30:13.092Z,51.57
2018-01-15T09:32:40.945Z,51.02
2018-01-15T09:35:08.586Z,51.14
2018-01-15T09:37:36.235Z,51.50
2018-01-15T09:40:04.016Z,52.30
2018-01-15T09:42:31.648Z,51.78
2018-01-15T09:44:59.277Z,51.71
2018-01-15T09:47:27.116Z,51.80
2018-01-15T09:49:54.753Z,51.57
2018-01-15T09:52:22.387Z,50.68
2018-01-15T09:54:50.502Z,51.45
2018-01-15T09:57:18.151Z,51.81
2018-01-15T09:59:45.799Z,50.90
2018-01-15T10:02:13.490Z,50.21
2018-01-15T10:04:41.182Z,50.73
2018-01-15T10:07:08.813Z,50.20
2018-01-15T10:09:36.699Z,50.47
2018-01-15T10:12:04.690Z,51.42
2018-01-15T10:14:32.345Z,50.09
2018-01-15T10:17:00.040Z,49.68
2018-01-15T10:19:27.706Z,49.51
2018-01-15T10:21:56.327Z,50.71
2018-01-15T10:24:25.083Z,48.74
2018-01-15T10:26:53.173Z,48.48
2018-01-15T10:29:20.831Z,48.04
2018-01-15T10:31:48.637Z,47.76
2018-01-15T10:34:16.500Z,47.64
2018-01-15T10:36:44.772Z,47.21
2018-01-15T10:39:12.595Z,48.14
2018-01-15T10:41:40.198Z,48.18
2018-01-15T10:44:07.842Z,47.73
2018-01-15T10:46:35.535Z,47.97
2018-01-15T10:49:03.183Z,48.08
2018-01-15T10:51:31.074Z,48.71
2018-01-15T10:53:58.867Z,49.52
2018-01-15T10:56:26.490Z,49.70
2018-01-15T10:58:54.451Z,49.94
2018-01-15T11:01:27.936Z,49.01
2018-01-15T11:03:55.562Z,49.19
2018-01-15T11:06:23.190Z,49.20
2018-01-15T11:08:50.977Z,48.55
2018-01-15T11:11:18.600Z,50.23
2018-01-15T11:13:46.223Z,50.22
2018-01-15T11:16:14.861Z,49.69
2018-01-15T11:18:42.535Z,50.55
2018-01-15T11:21:10.202Z,49.61
2018-01-15T11:23:38.060Z,50.40
2018-01-15T11:26:05.683Z,50.61
2018-01-15T11:28:33.296Z,50.89
2018-01-15T11:31:00.994Z,51.03
2018-01-15T11:33:28.610Z,50.54
2018-01-15T11:35:56.246Z,49.46
2018-01-15T11:38:24.375Z,49.53
2018-01-15T11:40:52.854Z,48.97
2018-01-15T11:43:20.499Z,48.47
2018-01-15T11:45:48.342Z,48.81
2018-01-15T11:48:16.365Z,47.05
2018-01-15T11:50:44.048Z,46.25
2018-01-15T11:53:11.785Z,45.62
2018-01-15T11:55:39.433Z,46.54
2018-01-15T11:58:07.079Z,43.49
2018-01-15T12:00:35.160Z,42.53
2018-01-15T12:03:02.798Z,42.74
2018-01-15T12:05:30.475Z,43.65
2018-01-15T12:07:58.445Z,44.18
2018-01-15T12:10:26.086Z,44.20
2018-01-15T12:12:53.596Z,44.73
2018-01-15T12:15:21.924Z,44.95
2018-01-15T12:17:49.432Z,43.84
2018-01-15T12:20:17.756Z,43.06
2018-01-15T12:22:45.681Z,42.92
2018-01-15T12:25:14.113Z,41.27
2018-01-15T12:27:41.640Z,40.46
2018-01-15T12:30:09.268Z,40.84
2018-01-15T12:32:36.782Z,40.73
2018-01-15T12:35:05.161Z,42.00
2018-01-15T12:37:32.865Z,42.83
2018-01-15T12:40:00.368Z,44.68
2018-01-15T12:42:28.696Z,42.60
2018-01-15T12:44:56.320Z,43.35
2018-01-15T12:47:23.845Z,43.51
2018-01-15T12:49:51.397Z,44.86
2018-01-15T12:52:19.113Z,46.50
2018-01-15T12:54:46.636Z,46.21
2018-01-15T12:57:14.141Z,46.25
2018-01-15T12:59:41.786Z,46.89
2018-01-15T13:02:09.294Z,46.80
2018-01-15T13:04:37.267Z,46.84
2018-01-15T13:07:04.811Z,47.12
2018-01-15T13:09:32.524Z,47.00
2018-01-15T13:12:00.505Z,46.61
2018-01-15T13:14:28.749Z,46.69
2018-01-15T13:16:56.253Z,47.34
2018-01-15T13:19:23.764Z,46.44
2018-01-15T13:21:51.500Z,46.45
2018-01-15T13:24:19.028Z,45.79
2018-01-15T13:26:46.533Z,45.87
2018-01-15T13:29:14.408Z,46.49
2018-01-15T13:31:41.928Z,46.38
2018-01-15T13:34:09.434Z,45.68
2018-01-15T13:36:37.385Z,46.70
2018-01-15T13:39:04.889Z,46.42
2018-01-15T13:41:32.392Z,45.97
2018-01-15T13:44:00.850Z,45.09
2018-01-15T13:46:28.353Z,45.75
2018-01-15T13:48:55.861Z,46.25
2018-01-15T13:51:23.985Z,46.08
2018-01-15T13:53:51.485Z,46.93
2018-01-15T13:56:19.842Z,46.68
2018-01-15T13:58:47.480Z,45.69
2018-01-15T14:01:15.348Z,46.96
2018-01-15T14:03:42.856Z,46.86
2018-01-15T14:06:10.491Z,47.28
2018-01-15T14:08:37.996Z,46.60
2018-01-15T14:11:05.511Z,46.27
2018-01-15T14:13:33.041Z,46.69
2018-01-15T14:16:00.544Z,47.97
2018-01-15T14:18:28.071Z,47.49
2018-01-15T14:20:56.008Z,47.90
2018-01-15T14:23:23.514Z,48.04
2018-01-15T14:25:51.017Z,47.21
2018-01-15T14:28:18.739Z,48.36
2018-01-15T14:30:46.265Z,47.94
2018-01-15T14:33:13.772Z,48.04
2018-01-15T14:35:41.334Z,48.89
2018-01-15T14:38:08.848Z,48.85
2018-01-15T14:40:36.413Z,49.14
2018-01-15T14:43:04.274Z,49.04
2018-01-15T14:45:32.638Z,48.75
2018-01-15T14:48:00.508Z,49.35
2018-01-15T14:50:28.141Z,49.63
2018-01-15T14:52:55.640Z,49.64
2018-01-15T14:55:23.136Z,49.64
2018-01-15T14:57:50.672Z,50.01
2018-01-15T15:00:18.185Z,49.07
2018-01-15T15:02:45.684Z,49.20
2018-01-15T15:05:13.317Z,49.72
2018-01-15T15:07:40.817Z,49.26
2018-01-15T15:10:08.321Z,49.08
2018-01-15T15:12:35.895Z,48.70
2018-01-15T15:15:03.486Z,49.74
2018-01-15T15:17:30.997Z,49.34
2018-01-15T15:19:58.821Z,49.41
2018-01-15T15:22:26.333Z,49.30
2018-01-15T15:24:53.998Z,49.76
2018-01-15T15:27:21.693Z,49.66
2018-01-15T15:29:49.208Z,50.00
2018-01-15T15:32:16.792Z,49.99
2018-01-15T15:34:44.633Z,49.85
2018-01-15T15:37:12.187Z,49.56
2018-01-15T15:39:39.785Z,49.75
2018-01-15T15:42:07.572Z,50.44
2018-01-15T15:44:35.909Z,49.52
2018-01-15T15:47:04.213Z,49.31
2018-01-15T15:49:31.979Z,48.91
2018-01-15T15:51:59.496Z,49.47
2018-01-15T15:54:27.080Z,49.20
2018-01-15T15:56:54.636Z,48.93
2018-01-15T15:59:22.176Z,48.81
2018-01-15T16:01:49.754Z,48.99
2018-01-15T16:04:17.569Z,49.40
2018-01-15T16:06:45.216Z,49.47
2018-01-15T16:09:12.830Z,48.68
2018-01-15T16:11:41.320Z,49.04
2018-01-15T16:14:08.965Z,48.82
2018-01-15T16:16:36.476Z,48.32
2018-01-15T16:19:04.456Z,48.49
2018-01-15T16:21:36.597Z,48.35
2018-01-15T16:24:04.151Z,48.51
2018-01-15T16:26:31.693Z,48.35
2018-01-15T16:28:59.323Z,48.75
2018-01-15T16:31:27.282Z,48.81
2018-01-15T16:33:55.004Z,47.70
2018-01-15T16:36:22.921Z,47.37
2018-01-15T16:38:50.816Z,48.70
2018-01-15T16:41:18.784Z,47.79
2018-01-15T16:43:46.719Z,47.86
2018-01-15T16:46:14.628Z,48.29
2018-01-15T16:48:42.485Z,48.68
2018-01-15T16:51:10.437Z,49.15
2018-01-15T16:53:38.511Z,48.52
2018-01-15T16:56:06.351Z,49.67
2018-01-15T16:58:34.156Z,48.22
2018-01-15T17:01:02.213Z,48.13
2018-01-15T17:03:30.100Z,48.65
2018-01-15T17:05:57.917Z,48.56
2018-01-15T17:08:25.877Z,48.02
2018-01-15T17:10:53.614Z,48.08
2018-01-15T17:13:21.410Z,48.59
2018-01-15T17:15:50.572Z,48.00
2018-01-15T17:18:18.420Z,47.89
2018-01-15T17:20:46.310Z,48.21
2018-01-15T17:23:14.455Z,48.07
2018-01-15T17:25:42.996Z,48.64
2018-01-15T17:28:10.943Z,48.44
2018-01-15T17:30:38.879Z,47.78
2018-01-15T17:33:06.536Z,47.93
2018-01-15T17:35:34.374Z,48.55
2018-01-15T17:38:02.226Z,48.18
2018-01-15T17:40:30.092Z,49.19
2018-01-15T17:42:58.002Z,49.77
2018-01-15T17:45:26.364Z,49.14
2018-01-15T17:47:54.226Z,48.81
2018-01-15T17:50:22.017Z,49.18
2018-01-15T17:52:50.179Z,49.02
2018-01-15T17:55:18.229Z,50.42
2018-01-15T17:57:46.110Z,50.03
2018-01-15T18:00:14.196Z,50.12
2018-01-15T18:02:42.173Z,49.45
2018-01-15T18:05:09.981Z,49.59
2018-01-15T18:07:38.150Z,50.69
2018-01-15T18:10:06.926Z,50.38
2018-01-15T18:12:34.673Z,50.92
2018-01-15T18:15:02.842Z,51.88
2018-01-15T18:17:30.806Z,51.53
2018-01-15T18:19:58.811Z,53.04
2018-01-15T18:22:26.808Z,52.46
2018-01-15T18:24:54.703Z,53.45
2018-01-15T18:27:22.642Z,51.76
2018-01-15T18:29:50.852Z,52.16
2018-01-15T18:32:18.712Z,54.70
2018-01-15T18:34:46.652Z,55.23
2018-01-15T18:37:14.842Z,56.72
2018-01-15T18:39:43.709Z,57.20
2018-01-15T18:42:11.609Z,56.81
2018-01-15T18:44:39.734Z,57.76
2018-01-15T18:47:08.139Z,59.40
2018-01-15T18:49:35.855Z,58.38
2018-01-15T18:52:03.929Z,59.23
2018-01-15T18:54:31.865Z,60.24
2018-01-15T18:56:59.829Z,60.58
2018-01-15T18:59:28.829Z,61.87
2018-01-15T19:01:56.887Z,61.87
2018-01-15T19:04:24.835Z,61.95
2018-01-15T19:06:52.836Z,62.79
2018-01-15T19:09:20.673Z,62.75
2018-01-15T19:11:48.766Z,62.41
2018-01-15T19:14:16.776Z,63.24
2018-01-15T19:16:44.660Z,63.44
2018-01-15T19:19:12.609Z,63.94
2018-01-15T19:21:40.837Z,64.85
2018-01-15T19:24:08.642Z,64.79
2018-01-15T19:26:36.593Z,64.97
2018-01-15T19:29:04.734Z,65.14
2018-01-15T19:31:32.591Z,65.00
2018-01-15T19:34:00.373Z,65.57
2018-01-15T19:36:33.979Z,65.57
2018-01-15T19:39:04.497Z,65.41
2018-01-15T19:44:09.258Z,66.52
2018-01-15T19:46:42.920Z,66.46
2018-01-15T19:49:16.824Z,67.38
2018-01-15T19:51:50.604Z,67.17
2018-01-15T19:54:23.664Z,67.43
2018-01-15T19:56:57.068Z,68.05
2018-01-15T19:59:30.404Z,67.89
2018-01-15T20:05:16.240Z,68.73
2018-01-15T20:07:49.911Z,69.22
2018-01-15T20:10:23.251Z,68.35
2018-01-15T20:12:51.585Z,68.43
2018-01-15T20:15:19.706Z,68.73
2018-01-15T20:17:47.658Z,69.22
2018-01-15T20:20:15.844Z,68.41
2018-01-15T20:22:43.540Z,69.96
2018-01-15T20:25:11.580Z,68.95
2018-01-15T20:27:39.735Z,69.95
2018-01-15T20:30:07.822Z,70.63
2018-01-15T20:32:35.788Z,70.30
2018-01-15T20:35:03.846Z,69.93
2018-01-15T20:37:31.810Z,69.60
2018-01-15T20:40:00.017Z,69.75
2018-01-15T20:42:28.174Z,69.86
2018-01-15T20:44:55.935Z,70.32
2018-01-15T20:47:23.975Z,69.56
2018-01-15T20:49:52.197Z,68.99
2018-01-15T20:52:19.934Z,69.73
2018-01-15T20:54:49.154Z,70.99
2018-01-15T20:57:18.125Z,70.43
2018-01-15T20:59:46.216Z,69.82
2018-01-15T21:02:14.698Z,71.37
2018-01-15T21:04:42.851Z,70.93
2018-01-15T21:07:10.730Z,70.52
2018-01-15T21:09:38.700Z,70.32
2018-01-15T21:12:07.077Z,71.29
2018-01-15T21:14:35.349Z,71.33
2018-01-15T21:17:03.418Z,71.12
2018-01-15T21:19:31.687Z,71.37
2018-01-15T21:22:01.105Z,71.08
2018-01-15T21:24:29.246Z,71.28
2018-01-15T21:26:57.130Z,71.63
2018-01-15T21:29:24.893Z,71.55
2018-01-15T21:31:52.779Z,71.27
2018-01-15T21:34:20.954Z,71.50
2018-01-15T21:36:48.912Z,70.97
2018-01-15T21:39:16.888Z,70.38
2018-01-15T21:41:45.015Z,71.30
2018-01-15T21:44:12.882Z,71.14
2018-01-15T21:46:40.651Z,70.50
2018-01-15T21:49:08.764Z,69.84
2018-01-15T21:51:36.526Z,69.85
2018-01-15T21:54:04.399Z,70.41
2018-01-15T21:56:32.536Z,70.33
2018-01-15T21:59:00.337Z,69.93
2018-01-15T22:01:27.847Z,70.48
2018-01-15T22:03:56.682Z,70.43
2018-01-15T22:06:24.546Z,70.25
2018-01-15T22:08:52.311Z,70.27
2018-01-15T22:11:20.580Z,69.76
2018-01-15T22:13:48.446Z,70.05
2018-01-15T22:16:16.004Z,70.22
2018-01-15T22:18:43.873Z,69.00
2018-01-15T22:21:11.426Z,70.12
2018-01-15T22:23:39.197Z,69.67
2018-01-15T22:26:06.960Z,69.01
2018-01-15T22:28:34.622Z,68.41
2018-01-15T22:31:02.283Z,68.37
2018-01-15T22:33:30.162Z,68.17
2018-01-15T22:35:58.155Z,68.14
2018-01-15T22:38:25.684Z,68.32
2018-01-15T22:40:53.544Z,67.90
2018-01-15T22:43:22.652Z,69.62
2018-01-15T22:45:50.405Z,69.10
2018-01-15T22:48:18.265Z,69.43
2018-01-15T22:50:46.038Z,69.43
2018-01-15T22:53:14.216Z,69.04
2018-01-15T22:55:42.095Z,69.09
2018-01-15T22:58:09.625Z,68.45
2018-01-15T23:00:37.292Z,68.93
2018-01-15T23:03:05.174Z,69.00
2018-01-15T23:05:32.825Z,69.51
2018-01-15T23:08:00.477Z,68.67
2018-01-15T23:10:28.560Z,69.64
2018-01-15T23:12:56.349Z,70.13
2018-01-15T23:15:24.398Z,69.11
2018-01-15T23:17:52.311Z,68.99
2018-01-15T23:20:20.024Z,69.87
2018-01-15T23:22:47.684Z,69.07
2018-01-15T23:25:15.748Z,69.80
2018-01-15T23:27:43.418Z,69.71
2018-01-15T23:30:13.668Z,70.21
2018-01-15T23:32:42.412Z,70.46
2018-01-15T23:35:11.319Z,70.14
2018-01-15T23:37:38.979Z,69.86
2018-01-15T23:40:06.846Z,69.93
2018-01-15T23:42:34.555Z,69.18
2018-01-15T23:45:02.166Z,69.06
2018-01-15T23:47:30.141Z,69.42
2018-01-15T23:49:58.004Z,70.30
2018-01-15T23:52:25.541Z,69.76
2018-01-15T23:54:53.173Z,70.33
2018-01-15T23:57:20.892Z,69.21
2018-01-15T23:59:48.647Z,69.12
